Ipapadi II — SW2289 — position and weather

sailwx.info

Track history (hours):
 
Tides and Currents Weather Stations Pressure Air Temp Water Temp Dewpoint Dewpoint Depression Visibility Wind Speed Wind Dir Waves Ship Positions

Ipapadi II

Last reported at 2018-Jul-31 02:14 UTC. Time now 2018-Aug-20 16:19 UTC.
Position N 37°12' E 025°04'.
Warning: this ship's position is 20 days out of date.

Length 22 m; draft 2.2 m.

Type: Fishing. MMSI: 239131000.

Date/timePositionNaut miles runAvg speedWind from/ knotsBaromVisibWave heightAir tempDewpointWater temp
2018-Jul-31 02:14N 37°12' E 025°04'2 7.3
2018-Jul-31 02:00N 37°13' E 025°03'4 8.7
2018-Jul-31 01:30N 37°17' E 024°60'3 7.0
2018-Jul-31 01:00N 37°20' E 024°58'3 6.0
2018-Jul-31 00:30N 37°23' E 024°56'1 1.0
2018-Jul-31 00:00N 37°23' E 024°57'0 0.0
2018-Jul-30 23:30N 37°23' E 024°57'0 0.0
2018-Jul-30 23:00N 37°23' E 024°57'0 0.0
2018-Jul-30 22:30N 37°23' E 024°57'1 1.5
2018-Jul-30 22:00N 37°23' E 024°56'0 0.6
2018-Jul-30 21:30N 37°22' E 024°56'3 5.5
2018-Jul-30 21:00N 37°24' E 024°59'1 1.5
2018-Jul-30 20:07N 37°25' E 024°59'0 0.4
2018-Jul-30 19:58N 37°25' E 024°59'0 0.5
2018-Jul-30 19:30N 37°25' E 024°59'0 0.1
2018-Jul-30 18:58N 37°25' E 024°59'0 0.2
2018-Jul-30 18:27N 37°25' E 024°59'0 0.5
2018-Jul-30 18:00N 37°25' E 024°59'1 1.6
2018-Jul-30 17:30N 37°24' E 024°60'  
2018-Jul-28 07:41N 37°08' E 025°14'0 0.0
2018-Jul-28 07:30N 37°08' E 025°14'0 0.0
2018-Jul-28 06:59N 37°08' E 025°14'0 0.0
2018-Jul-28 06:30N 37°08' E 025°14'0 0.0
2018-Jul-28 05:56N 37°08' E 025°14'0 0.0
2018-Jul-28 05:28N 37°08' E 025°14'0 0.0
2018-Jul-28 04:58N 37°08' E 025°14'0 0.0
2018-Jul-28 04:28N 37°08' E 025°14'0 0.0
2018-Jul-28 03:59N 37°08' E 025°14'0 0.0
2018-Jul-28 02:43N 37°08' E 025°14'0 0.0
2018-Jul-28 02:20N 37°08' E 025°14'0 0.0
2018-Jul-28 01:51N 37°08' E 025°14'0 0.0
2018-Jul-28 01:22N 37°08' E 025°14'0 0.0
2018-Jul-28 01:00N 37°08' E 025°14'0 0.0
2018-Jul-28 00:24N 37°08' E 025°14'0 0.0
2018-Jul-27 23:38N 37°08' E 025°14'0 0.0
2018-Jul-27 23:27N 37°08' E 025°14'0 0.0
2018-Jul-27 22:52N 37°08' E 025°14'0 0.0
2018-Jul-27 22:27N 37°08' E 025°14'0 0.0
2018-Jul-27 21:59N 37°08' E 025°14'0 0.0
2018-Jul-27 21:30N 37°08' E 025°14'0 0.0
2018-Jul-27 20:46N 37°08' E 025°14'0 0.0
2018-Jul-27 20:30N 37°08' E 025°14'0 0.0
2018-Jul-27 19:58N 37°08' E 025°14'0 0.0
2018-Jul-27 19:26N 37°08' E 025°14'0 0.0
2018-Jul-27 18:54N 37°08' E 025°14'0 0.0
2018-Jul-27 17:01N 37°08' E 025°14'0 0.0
2018-Jul-27 16:49N 37°08' E 025°14'0 0.0
2018-Jul-27 16:23N 37°08' E 025°14'0 0.0
2018-Jul-27 15:53N 37°08' E 025°14'0 0.0
2018-Jul-27 15:21N 37°08' E 025°14'0 0.0
2018-Jul-27 14:51N 37°08' E 025°14'0 0.0
2018-Jul-27 14:28N 37°08' E 025°14'0 0.0
2018-Jul-27 14:00N 37°08' E 025°14'0 0.0
2018-Jul-27 13:30N 37°08' E 025°14'0 0.0
2018-Jul-27 12:58N 37°08' E 025°14'0 0.0
2018-Jul-27 12:30N 37°08' E 025°14'0 0.0
2018-Jul-27 12:00N 37°08' E 025°14'0 0.0
2018-Jul-27 11:30N 37°08' E 025°14'0 0.0
2018-Jul-27 10:52N 37°08' E 025°14'0 0.0
2018-Jul-27 10:28N 37°08' E 025°14'0 0.0
2018-Jul-27 10:00N 37°08' E 025°14'0 0.0
2018-Jul-27 07:11N 37°08' E 025°14'0 0.0
2018-Jul-27 06:46N 37°08' E 025°14'0 0.0
2018-Jul-27 06:18N 37°08' E 025°14'0 0.0
2018-Jul-27 06:00N 37°08' E 025°14'0 0.0
2018-Jul-27 05:30N 37°08' E 025°14'0 0.0
2018-Jul-27 05:00N 37°08' E 025°14'0 0.0
2018-Jul-27 04:29N 37°08' E 025°14'0 0.0
2018-Jul-27 04:00N 37°08' E 025°14'0 0.0
2018-Jul-27 03:29N 37°08' E 025°14'0 0.0
2018-Jul-27 03:00N 37°08' E 025°14'0 0.0
2018-Jul-27 02:22N 37°08' E 025°14'0 0.0
2018-Jul-27 01:59N 37°08' E 025°14'0 0.0
2018-Jul-27 00:26N 37°08' E 025°14'0 0.0
2018-Jul-26 23:36N 37°08' E 025°14'0 0.0
2018-Jul-26 23:13N 37°08' E 025°14'0 0.0
2018-Jul-26 22:57N 37°08' E 025°14'0 0.0
2018-Jul-26 22:29N 37°08' E 025°14'0 0.0
2018-Jul-26 21:59N 37°08' E 025°14'0 0.0
2018-Jul-26 21:30N 37°08' E 025°14'0 0.0
2018-Jul-26 20:59N 37°08' E 025°14'0 0.0
2018-Jul-26 20:24N 37°08' E 025°14'0 0.0
2018-Jul-26 19:23N 37°08' E 025°14'0 0.0
2018-Jul-26 18:58N 37°08' E 025°14'0 0.0
2018-Jul-26 18:30N 37°08' E 025°14'0 0.0
2018-Jul-26 18:01N 37°08' E 025°14'0 0.0
2018-Jul-26 17:16N 37°08' E 025°14'0 0.0
2018-Jul-26 16:57N 37°08' E 025°14'0 0.0
2018-Jul-26 16:28N 37°08' E 025°14'0 0.0
2018-Jul-26 14:48N 37°08' E 025°14'0 0.0
2018-Jul-26 14:10N 37°08' E 025°14'0 0.0
2018-Jul-26 14:00N 37°08' E 025°14'0 0.0
2018-Jul-26 13:26N 37°08' E 025°14'0 0.0
2018-Jul-26 12:55N 37°08' E 025°14'0 0.0
2018-Jul-26 12:30N 37°08' E 025°14'0 0.0
2018-Jul-26 11:49N 37°08' E 025°14'0 0.0
2018-Jul-26 11:27N 37°08' E 025°14'0 0.0
2018-Jul-26 10:56N 37°08' E 025°14'0 0.0
2018-Jul-26 10:27N 37°08' E 025°14'0 0.0
2018-Jul-26 09:56N 37°08' E 025°14'0 0.0
2018-Jul-26 08:16N 37°08' E 025°14'0 0.0
2018-Jul-26 07:59N 37°08' E 025°14'0 0.0
2018-Jul-26 07:23N 37°08' E 025°14'0 0.0
2018-Jul-26 06:57N 37°08' E 025°14'0 0.0
2018-Jul-26 06:28N 37°08' E 025°14'0 0.0
2018-Jul-26 05:50N 37°08' E 025°14'0 0.0
2018-Jul-26 05:30N 37°08' E 025°14'0 0.0
2018-Jul-26 05:00N 37°08' E 025°14'0 0.0
2018-Jul-26 04:30N 37°08' E 025°14'0 0.0
2018-Jul-26 03:51N 37°08' E 025°14'0 0.0
2018-Jul-26 03:27N 37°08' E 025°14'0 0.0
2018-Jul-26 02:49N 37°08' E 025°14'0 0.0
2018-Jul-26 02:26N 37°08' E 025°14'0 0.0
2018-Jul-26 02:00N 37°08' E 025°14'0 0.0
2018-Jul-26 01:28N 37°08' E 025°14'0 0.0
2018-Jul-26 00:58N 37°08' E 025°14'0 0.0
2018-Jul-26 00:24N 37°08' E 025°14'0 0.0
2018-Jul-26 00:00N 37°08' E 025°14'0 0.0
2018-Jul-25 23:30N 37°08' E 025°14'0 0.0
2018-Jul-25 22:59N 37°08' E 025°14'0 0.0
2018-Jul-25 22:30N 37°08' E 025°14'0 0.0
2018-Jul-25 22:00N 37°08' E 025°14'0 0.0
2018-Jul-25 21:30N 37°08' E 025°14'0 0.0
2018-Jul-25 20:59N 37°08' E 025°14'0 0.0
2018-Jul-25 20:24N 37°08' E 025°14'0 0.0
2018-Jul-25 19:58N 37°08' E 025°14'0 0.0
2018-Jul-25 19:31N 37°08' E 025°14'0 0.0
2018-Jul-25 18:59N 37°08' E 025°14'0 0.0
2018-Jul-25 18:29N 37°08' E 025°14'0 0.0
2018-Jul-25 17:57N 37°08' E 025°14'0 0.0
2018-Jul-25 17:29N 37°08' E 025°14'0 0.0
2018-Jul-25 16:49N 37°08' E 025°14'0 0.0
2018-Jul-25 16:23N 37°08' E 025°14'0 0.0
2018-Jul-25 16:00N 37°08' E 025°14'0 0.0
2018-Jul-25 15:30N 37°08' E 025°14'0 0.0
2018-Jul-25 14:59N 37°08' E 025°14'0 0.0
2018-Jul-25 14:22N 37°08' E 025°14'0 0.0
2018-Jul-25 13:55N 37°08' E 025°14'0 0.0
2018-Jul-25 13:26N 37°08' E 025°14'0 0.0
2018-Jul-25 13:00N 37°08' E 025°14'0 0.0
2018-Jul-25 12:30N 37°08' E 025°14'0 0.0
2018-Jul-25 11:56N 37°08' E 025°14'0 0.0
2018-Jul-25 11:21N 37°08' E 025°14'0 0.0
2018-Jul-25 11:00N 37°08' E 025°14'0 0.0
2018-Jul-25 10:29N 37°08' E 025°14'0 0.0
2018-Jul-25 09:58N 37°08' E 025°14'0 0.0
2018-Jul-25 09:29N 37°08' E 025°14'  
Track history (hours):
 
Tides and Currents Weather Stations Pressure Air Temp Water Temp Dewpoint Dewpoint Depression Visibility Wind Speed Wind Dir Waves Ship Positions

Ipapadi II

Last reported at 2018-Jul-31 02:14 UTC. Time now 2018-Aug-20 16:19 UTC.
Position N 37°12' E 025°04'.
Warning: this ship's position is 20 days out of date.

Length 22 m; draft 2.2 m.

Type: Fishing. MMSI: 239131000.

Date/timePositionNaut miles runAvg speedWind from/ knotsBaromVisibWave heightAir tempDewpointWater temp
2018-Jul-31 02:14N 37°12' E 025°04'2 7.3
2018-Jul-31 02:00N 37°13' E 025°03'4 8.7
2018-Jul-31 01:30N 37°17' E 024°60'3 7.0
2018-Jul-31 01:00N 37°20' E 024°58'3 6.0
2018-Jul-31 00:30N 37°23' E 024°56'1 1.0
2018-Jul-31 00:00N 37°23' E 024°57'0 0.0
2018-Jul-30 23:30N 37°23' E 024°57'0 0.0
2018-Jul-30 23:00N 37°23' E 024°57'0 0.0
2018-Jul-30 22:30N 37°23' E 024°57'1 1.5
2018-Jul-30 22:00N 37°23' E 024°56'0 0.6
2018-Jul-30 21:30N 37°22' E 024°56'3 5.5
2018-Jul-30 21:00N 37°24' E 024°59'1 1.5
2018-Jul-30 20:07N 37°25' E 024°59'0 0.4
2018-Jul-30 19:58N 37°25' E 024°59'0 0.5
2018-Jul-30 19:30N 37°25' E 024°59'0 0.1
2018-Jul-30 18:58N 37°25' E 024°59'0 0.2
2018-Jul-30 18:27N 37°25' E 024°59'0 0.5
2018-Jul-30 18:00N 37°25' E 024°59'1 1.6
2018-Jul-30 17:30N 37°24' E 024°60'  
2018-Jul-28 07:41N 37°08' E 025°14'0 0.0
2018-Jul-28 07:30N 37°08' E 025°14'0 0.0
2018-Jul-28 06:59N 37°08' E 025°14'0 0.0
2018-Jul-28 06:30N 37°08' E 025°14'0 0.0
2018-Jul-28 05:56N 37°08' E 025°14'0 0.0
2018-Jul-28 05:28N 37°08' E 025°14'0 0.0
2018-Jul-28 04:58N 37°08' E 025°14'0 0.0
2018-Jul-28 04:28N 37°08' E 025°14'0 0.0
2018-Jul-28 03:59N 37°08' E 025°14'0 0.0
2018-Jul-28 02:43N 37°08' E 025°14'0 0.0
2018-Jul-28 02:20N 37°08' E 025°14'0 0.0
2018-Jul-28 01:51N 37°08' E 025°14'0 0.0
2018-Jul-28 01:22N 37°08' E 025°14'0 0.0
2018-Jul-28 01:00N 37°08' E 025°14'0 0.0
2018-Jul-28 00:24N 37°08' E 025°14'0 0.0
2018-Jul-27 23:38N 37°08' E 025°14'0 0.0
2018-Jul-27 23:27N 37°08' E 025°14'0 0.0
2018-Jul-27 22:52N 37°08' E 025°14'0 0.0
2018-Jul-27 22:27N 37°08' E 025°14'0 0.0
2018-Jul-27 21:59N 37°08' E 025°14'0 0.0
2018-Jul-27 21:30N 37°08' E 025°14'0 0.0
2018-Jul-27 20:46N 37°08' E 025°14'0 0.0
2018-Jul-27 20:30N 37°08' E 025°14'0 0.0
2018-Jul-27 19:58N 37°08' E 025°14'0 0.0
2018-Jul-27 19:26N 37°08' E 025°14'0 0.0
2018-Jul-27 18:54N 37°08' E 025°14'0 0.0
2018-Jul-27 17:01N 37°08' E 025°14'0 0.0
2018-Jul-27 16:49N 37°08' E 025°14'0 0.0
2018-Jul-27 16:23N 37°08' E 025°14'0 0.0
2018-Jul-27 15:53N 37°08' E 025°14'0 0.0
2018-Jul-27 15:21N 37°08' E 025°14'0 0.0
2018-Jul-27 14:51N 37°08' E 025°14'0 0.0
2018-Jul-27 14:28N 37°08' E 025°14'0 0.0
2018-Jul-27 14:00N 37°08' E 025°14'0 0.0
2018-Jul-27 13:30N 37°08' E 025°14'0 0.0
2018-Jul-27 12:58N 37°08' E 025°14'0 0.0
2018-Jul-27 12:30N 37°08' E 025°14'0 0.0
2018-Jul-27 12:00N 37°08' E 025°14'0 0.0
2018-Jul-27 11:30N 37°08' E 025°14'0 0.0
2018-Jul-27 10:52N 37°08' E 025°14'0 0.0
2018-Jul-27 10:28N 37°08' E 025°14'0 0.0
2018-Jul-27 10:00N 37°08' E 025°14'0 0.0
2018-Jul-27 07:11N 37°08' E 025°14'0 0.0
2018-Jul-27 06:46N 37°08' E 025°14'0 0.0
2018-Jul-27 06:18N 37°08' E 025°14'0 0.0
2018-Jul-27 06:00N 37°08' E 025°14'0 0.0
2018-Jul-27 05:30N 37°08' E 025°14'0 0.0
2018-Jul-27 05:00N 37°08' E 025°14'0 0.0
2018-Jul-27 04:29N 37°08' E 025°14'0 0.0
2018-Jul-27 04:00N 37°08' E 025°14'0 0.0
2018-Jul-27 03:29N 37°08' E 025°14'0 0.0
2018-Jul-27 03:00N 37°08' E 025°14'0 0.0
2018-Jul-27 02:22N 37°08' E 025°14'0 0.0
2018-Jul-27 01:59N 37°08' E 025°14'0 0.0
2018-Jul-27 00:26N 37°08' E 025°14'0 0.0
2018-Jul-26 23:36N 37°08' E 025°14'0 0.0
2018-Jul-26 23:13N 37°08' E 025°14'0 0.0
2018-Jul-26 22:57N 37°08' E 025°14'0 0.0
2018-Jul-26 22:29N 37°08' E 025°14'0 0.0
2018-Jul-26 21:59N 37°08' E 025°14'0 0.0
2018-Jul-26 21:30N 37°08' E 025°14'0 0.0
2018-Jul-26 20:59N 37°08' E 025°14'0 0.0
2018-Jul-26 20:24N 37°08' E 025°14'0 0.0
2018-Jul-26 19:23N 37°08' E 025°14'0 0.0
2018-Jul-26 18:58N 37°08' E 025°14'0 0.0
2018-Jul-26 18:30N 37°08' E 025°14'0 0.0
2018-Jul-26 18:01N 37°08' E 025°14'0 0.0
2018-Jul-26 17:16N 37°08' E 025°14'0 0.0
2018-Jul-26 16:57N 37°08' E 025°14'0 0.0
2018-Jul-26 16:28N 37°08' E 025°14'0 0.0
2018-Jul-26 14:48N 37°08' E 025°14'0 0.0
2018-Jul-26 14:10N 37°08' E 025°14'0 0.0
2018-Jul-26 14:00N 37°08' E 025°14'0 0.0
2018-Jul-26 13:26N 37°08' E 025°14'0 0.0
2018-Jul-26 12:55N 37°08' E 025°14'0 0.0
2018-Jul-26 12:30N 37°08' E 025°14'0 0.0
2018-Jul-26 11:49N 37°08' E 025°14'0 0.0
2018-Jul-26 11:27N 37°08' E 025°14'0 0.0
2018-Jul-26 10:56N 37°08' E 025°14'0 0.0
2018-Jul-26 10:27N 37°08' E 025°14'0 0.0
2018-Jul-26 09:56N 37°08' E 025°14'0 0.0
2018-Jul-26 08:16N 37°08' E 025°14'0 0.0
2018-Jul-26 07:59N 37°08' E 025°14'0 0.0
2018-Jul-26 07:23N 37°08' E 025°14'0 0.0
2018-Jul-26 06:57N 37°08' E 025°14'0 0.0
2018-Jul-26 06:28N 37°08' E 025°14'0 0.0
2018-Jul-26 05:50N 37°08' E 025°14'0 0.0
2018-Jul-26 05:30N 37°08' E 025°14'0 0.0
2018-Jul-26 05:00N 37°08' E 025°14'0 0.0
2018-Jul-26 04:30N 37°08' E 025°14'0 0.0
2018-Jul-26 03:51N 37°08' E 025°14'0 0.0
2018-Jul-26 03:27N 37°08' E 025°14'0 0.0
2018-Jul-26 02:49N 37°08' E 025°14'0 0.0
2018-Jul-26 02:26N 37°08' E 025°14'0 0.0
2018-Jul-26 02:00N 37°08' E 025°14'0 0.0
2018-Jul-26 01:28N 37°08' E 025°14'0 0.0
2018-Jul-26 00:58N 37°08' E 025°14'0 0.0
2018-Jul-26 00:24N 37°08' E 025°14'0 0.0
2018-Jul-26 00:00N 37°08' E 025°14'0 0.0
2018-Jul-25 23:30N 37°08' E 025°14'0 0.0
2018-Jul-25 22:59N 37°08' E 025°14'0 0.0
2018-Jul-25 22:30N 37°08' E 025°14'0 0.0
2018-Jul-25 22:00N 37°08' E 025°14'0 0.0
2018-Jul-25 21:30N 37°08' E 025°14'0 0.0
2018-Jul-25 20:59N 37°08' E 025°14'0 0.0
2018-Jul-25 20:24N 37°08' E 025°14'0 0.0
2018-Jul-25 19:58N 37°08' E 025°14'0 0.0
2018-Jul-25 19:31N 37°08' E 025°14'0 0.0
2018-Jul-25 18:59N 37°08' E 025°14'0 0.0
2018-Jul-25 18:29N 37°08' E 025°14'0 0.0
2018-Jul-25 17:57N 37°08' E 025°14'0 0.0
2018-Jul-25 17:29N 37°08' E 025°14'0 0.0
2018-Jul-25 16:49N 37°08' E 025°14'0 0.0
2018-Jul-25 16:23N 37°08' E 025°14'0 0.0
2018-Jul-25 16:00N 37°08' E 025°14'0 0.0
2018-Jul-25 15:30N 37°08' E 025°14'0 0.0
2018-Jul-25 14:59N 37°08' E 025°14'0 0.0
2018-Jul-25 14:22N 37°08' E 025°14'0 0.0
2018-Jul-25 13:55N 37°08' E 025°14'0 0.0
2018-Jul-25 13:26N 37°08' E 025°14'0 0.0
2018-Jul-25 13:00N 37°08' E 025°14'0 0.0
2018-Jul-25 12:30N 37°08' E 025°14'0 0.0
2018-Jul-25 11:56N 37°08' E 025°14'0 0.0
2018-Jul-25 11:21N 37°08' E 025°14'0 0.0
2018-Jul-25 11:00N 37°08' E 025°14'0 0.0
2018-Jul-25 10:29N 37°08' E 025°14'0 0.0
2018-Jul-25 09:58N 37°08' E 025°14'0 0.0
2018-Jul-25 09:29N 37°08' E 025°14'  

Dump ship's entire track history